Time;durP1;ratioP1;P1;durP2;ratioP2;P2;SDS_P1;SDS_P2;PMS_P1;PMS_P2;Temp;Humidity;BMP_temperature;BMP_pressure;BME280_temperature;BME280_humidity;BME280_pressure;Samples;Min_cycle;Max_cycle;Signal;HPM_P1;HPM_P2
2024/01/11 00:00:19;;;;;;;35.47;26.30;;;2.70;46.20;;;;;;6158670;23;20414;-77
2024/01/11 00:02:45;;;;;;;34.60;26.27;;;2.70;44.80;;;;;;6158885;23;20009;-77
2024/01/11 00:05:10;;;;;;;34.30;27.00;;;2.70;46.30;;;;;;6185052;23;20676;-77
2024/01/11 00:07:36;;;;;;;37.47;27.63;;;2.60;45.60;;;;;;6184792;23;20427;-77
2024/01/11 00:10:03;;;;;;;37.33;26.77;;;2.70;47.50;;;;;;6158976;23;20009;-77
2024/01/11 00:12:29;;;;;;;38.73;26.87;;;2.60;45.60;;;;;;6158772;23;20468;-77
2024/01/11 00:14:55;;;;;;;38.83;28.33;;;2.60;46.70;;;;;;6183644;23;20310;-77
2024/01/11 00:17:23;;;;;;;38.60;27.93;;;2.60;49.40;;;;;;6158538;23;20032;-77
2024/01/11 00:19:50;;;;;;;37.67;26.73;;;2.60;49.90;;;;;;6158968;23;20262;-77
2024/01/11 00:22:16;;;;;;;35.47;27.40;;;2.60;49.10;;;;;;6185232;23;20005;-77
2024/01/11 00:24:41;;;;;;;35.27;26.03;;;2.60;50.60;;;;;;6185351;23;20058;-77
2024/01/11 00:27:07;;;;;;;35.40;26.37;;;2.60;50.80;;;;;;6185248;23;20464;-78
2024/01/11 00:29:35;;;;;;;36.37;26.83;;;2.60;49.80;;;;;;6158662;23;20039;-77
2024/01/11 00:32:01;;;;;;;39.20;28.23;;;2.60;49.40;;;;;;6158776;23;20056;-77
2024/01/11 00:34:26;;;;;;;37.47;27.93;;;2.50;50.50;;;;;;6185249;23;20001;-77
2024/01/11 00:36:52;;;;;;;34.77;28.00;;;2.50;51.00;;;;;;6184983;23;19997;-77
2024/01/11 00:39:18;;;;;;;36.33;27.50;;;2.50;54.80;;;;;;6158613;23;20511;-77
2024/01/11 00:41:43;;;;;;;37.30;27.63;;;2.50;55.80;;;;;;6185306;23;19997;-77
2024/01/11 00:44:09;;;;;;;35.07;27.53;;;2.50;54.40;;;;;;6158723;23;20334;-77
2024/01/11 00:46:35;;;;;;;35.97;28.73;;;2.50;56.10;;;;;;6185230;23;20015;-77
2024/01/11 00:49:00;;;;;;;38.40;28.97;;;2.40;57.40;;;;;;6158415;23;20059;-77
2024/01/11 00:51:26;;;;;;;39.33;28.73;;;2.50;56.90;;;;;;6184995;23;20480;-77
2024/01/11 00:53:52;;;;;;;40.17;30.50;;;2.50;56.90;;;;;;6184835;23;20345;-77
2024/01/11 00:56:18;;;;;;;37.47;29.33;;;2.50;58.20;;;;;;6184958;23;20479;-77
2024/01/11 00:58:44;;;;;;;39.78;29.08;;;2.50;58.00;;;;;;6184883;23;20008;-77
2024/01/11 01:01:10;;;;;;;41.40;29.77;;;2.50;58.70;;;;;;6184531;23;20345;-77
2024/01/11 01:03:36;;;;;;;40.53;30.00;;;2.50;55.60;;;;;;6184916;23;20024;-77
2024/01/11 01:06:03;;;;;;;36.40;28.17;;;2.50;52.90;;;;;;6184741;23;20075;-77
2024/01/11 01:08:28;;;;;;;38.90;29.23;;;2.50;51.70;;;;;;6184994;23;20451;-77
2024/01/11 01:10:54;;;;;;;39.30;29.00;;;2.40;54.10;;;;;;6184820;23;20038;-77
2024/01/11 01:13:20;;;;;;;41.43;29.23;;;2.40;54.70;;;;;;6184598;23;20001;-77
2024/01/11 01:15:46;;;;;;;41.63;29.90;;;2.40;56.10;;;;;;6184905;23;19997;-77
2024/01/11 01:18:12;;;;;;;37.33;28.30;;;2.40;57.10;;;;;;6184887;23;20425;-77
2024/01/11 01:20:37;;;;;;;43.73;29.43;;;2.40;58.20;;;;;;6158368;23;20336;-77
2024/01/11 01:23:03;;;;;;;37.60;29.43;;;2.40;57.50;;;;;;6184684;23;20008;-77
2024/01/11 01:25:29;;;;;;;40.33;30.23;;;2.40;59.30;;;;;;6184762;23;20084;-77
2024/01/11 01:27:55;;;;;;;38.60;28.80;;;2.40;61.60;;;;;;6184748;23;20547;-77
2024/01/11 01:30:22;;;;;;;39.17;28.90;;;2.40;62.80;;;;;;6158189;23;20005;-77
2024/01/11 01:32:47;;;;;;;39.43;29.50;;;2.40;62.50;;;;;;6184738;23;20012;-77
2024/01/11 01:35:13;;;;;;;40.50;29.20;;;2.40;64.30;;;;;;6184639;23;20001;-77
2024/01/11 01:37:39;;;;;;;39.53;29.43;;;2.40;64.60;;;;;;6184164;23;20064;-77
2024/01/11 01:40:07;;;;;;;41.00;31.23;;;2.30;66.60;;;;;;6158135;23;20005;-77
2024/01/11 01:42:33;;;;;;;37.83;29.13;;;2.40;69.40;;;;;;6184477;23;20473;-77
2024/01/11 01:44:59;;;;;;;39.33;29.87;;;2.50;66.30;;;;;;6158259;23;20059;-77
2024/01/11 01:47:26;;;;;;;40.60;29.10;;;2.50;63.10;;;;;;6184527;23;20044;-77
2024/01/11 01:49:52;;;;;;;41.13;31.10;;;2.40;58.70;;;;;;6158069;23;20116;-77
2024/01/11 01:52:19;;;;;;;37.93;30.00;;;2.40;62.70;;;;;;6157780;23;20048;-77
2024/01/11 01:54:47;;;;;;;41.27;31.50;;;2.40;61.60;;;;;;6157965;23;20338;-77
2024/01/11 01:57:14;;;;;;;39.70;30.50;;;2.40;70.20;;;;;;6157914;23;20013;-77
2024/01/11 01:59:41;;;;;;;41.23;31.90;;;2.40;70.70;;;;;;6184168;23;20089;-77
2024/01/11 02:02:10;;;;;;;41.30;29.87;;;2.40;71.30;;;;;;6158299;23;20055;-77
2024/01/11 02:04:39;;;;;;;41.93;31.30;;;2.30;71.60;;;;;;6157852;23;20452;-77
2024/01/11 02:07:06;;;;;;;39.47;29.93;;;2.30;71.00;;;;;;6184334;23;20004;-78
2024/01/11 02:09:33;;;;;;;43.00;31.10;;;2.30;76.70;;;;;;6184217;23;20001;-77
2024/01/11 02:12:00;;;;;;;37.20;29.83;;;2.30;72.80;;;;;;6157446;23;20031;-77
2024/01/11 02:14:26;;;;;;;38.70;30.33;;;2.30;75.60;;;;;;6158013;23;20421;-77
2024/01/11 02:16:52;;;;;;;41.40;30.67;;;2.40;73.20;;;;;;6184296;23;20001;-77
2024/01/11 02:19:19;;;;;;;43.97;31.50;;;2.40;72.80;;;;;;6183927;23;20063;-77
2024/01/11 02:21:48;;;;;;;42.80;31.70;;;2.40;71.30;;;;;;6157903;23;20012;-77
2024/01/11 02:24:14;;;;;;;39.00;31.07;;;2.40;70.40;;;;;;6184169;23;20001;-77
2024/01/11 02:26:59;;;;;;;40.03;30.40;;;2.40;70.40;;;;;;6183622;23;20432;-77
2024/01/11 02:29:25;;;;;;;42.70;31.37;;;2.40;69.50;;;;;;6184109;23;20008;-77
2024/01/11 02:31:54;;;;;;;43.97;32.10;;;2.40;71.60;;;;;;6184138;23;20003;-77
2024/01/11 02:34:21;;;;;;;40.63;31.63;;;2.40;71.80;;;;;;6157609;23;20015;-77
2024/01/11 02:36:47;;;;;;;42.57;32.20;;;2.40;70.90;;;;;;6184155;23;20111;-77
2024/01/11 02:39:16;;;;;;;44.50;33.53;;;2.30;71.10;;;;;;6184116;23;20032;-77
2024/01/11 02:41:43;;;;;;;41.73;32.63;;;2.40;76.50;;;;;;6157538;23;20334;-77
2024/01/11 02:44:08;;;;;;;44.70;34.10;;;2.40;74.40;;;;;;6156824;23;20016;-78
2024/01/11 02:46:34;;;;;;;43.93;34.10;;;2.30;78.00;;;;;;6183272;23;20001;-77
2024/01/11 02:49:00;;;;;;;44.37;33.27;;;2.30;77.80;;;;;;6183865;23;20488;-77
2024/01/11 02:51:25;;;;;;;44.47;33.20;;;2.40;78.20;;;;;;6183918;23;20032;-77
2024/01/11 02:53:51;;;;;;;43.80;33.37;;;2.40;77.60;;;;;;6183135;23;20076;-77
2024/01/11 02:56:19;;;;;;;44.77;33.53;;;2.40;76.90;;;;;;6157242;23;20345;-77
2024/01/11 02:58:45;;;;;;;42.97;32.90;;;2.30;76.00;;;;;;6183696;23;20001;-77
2024/01/11 03:01:11;;;;;;;43.30;33.30;;;2.30;75.60;;;;;;6182623;23;20013;-77
2024/01/11 03:03:37;;;;;;;47.27;32.87;;;2.30;80.20;;;;;;6183670;23;20063;-77
2024/01/11 03:06:03;;;;;;;46.13;33.83;;;2.30;80.40;;;;;;6183873;23;20563;-77
2024/01/11 03:08:28;;;;;;;45.40;32.10;;;2.30;81.50;;;;;;6183779;23;20553;-77
2024/01/11 03:10:54;;;;;;;40.53;32.03;;;2.30;78.10;;;;;;6156982;23;20005;-77
2024/01/11 03:13:20;;;;;;;40.43;30.83;;;2.20;72.80;;;;;;6157420;23;20005;-77
2024/01/11 03:15:46;;;;;;;39.67;31.07;;;2.20;73.50;;;;;;6183636;23;20027;-77
2024/01/11 03:18:12;;;;;;;48.17;32.40;;;2.20;77.00;;;;;;6157574;23;20460;-77
2024/01/11 03:20:37;;;;;;;44.33;32.87;;;2.30;82.80;;;;;;6183448;23;20004;-77
2024/01/11 03:23:03;;;;;;;46.80;33.43;;;2.20;83.80;;;;;;6183303;23;20014;-77
2024/01/11 03:25:32;;;;;;;41.90;33.00;;;2.30;82.40;;;;;;6157268;23;20460;-77
2024/01/11 03:28:01;;;;;;;44.73;33.20;;;2.30;76.30;;;;;;6157532;23;20047;-77
2024/01/11 03:30:26;;;;;;;46.20;33.00;;;2.40;77.60;;;;;;6157458;23;20005;-77
2024/01/11 03:32:53;;;;;;;42.63;33.33;;;2.40;75.70;;;;;;6182739;23;20001;-77
2024/01/11 03:35:19;;;;;;;44.70;33.80;;;2.40;68.70;;;;;;6183155;23;20080;-77
2024/01/11 03:37:45;;;;;;;41.37;32.20;;;2.40;70.70;;;;;;6156927;23;20008;-77
2024/01/11 03:40:11;;;;;;;39.50;31.73;;;2.40;71.90;;;;;;6183968;23;19997;-77
2024/01/11 03:42:37;;;;;;;40.50;32.53;;;2.40;72.20;;;;;;6156790;23;20020;-77
2024/01/11 03:45:04;;;;;;;44.50;33.63;;;2.40;73.20;;;;;;6183744;23;20481;-77
2024/01/11 03:47:30;;;;;;;42.43;33.13;;;2.40;72.70;;;;;;6157562;23;20009;-77
2024/01/11 03:49:55;;;;;;;42.47;31.00;;;2.40;73.80;;;;;;6183583;23;20514;-77
2024/01/11 03:52:21;;;;;;;42.70;32.53;;;2.40;73.60;;;;;;6156889;23;20441;-77
2024/01/11 03:54:47;;;;;;;41.13;32.30;;;2.40;74.70;;;;;;6157320;23;20005;-77
2024/01/11 03:57:13;;;;;;;39.33;30.37;;;2.30;73.10;;;;;;6182976;23;20028;-77
2024/01/11 03:59:40;;;;;;;40.00;30.77;;;2.40;74.40;;;;;;6183329;23;20380;-77
2024/01/11 04:02:06;;;;;;;40.77;31.13;;;2.40;79.40;;;;;;6157265;23;20329;-77
2024/01/11 04:04:32;;;;;;;42.43;30.53;;;2.40;73.10;;;;;;6157290;23;20456;-77
2024/01/11 04:06:58;;;;;;;38.40;30.37;;;2.30;74.10;;;;;;6183342;23;20068;-77
2024/01/11 04:09:24;;;;;;;38.00;28.67;;;2.40;80.60;;;;;;6181584;23;20029;-77
2024/01/11 04:11:50;;;;;;;41.20;30.30;;;2.40;72.30;;;;;;6183554;23;20072;-78
2024/01/11 04:14:15;;;;;;;37.57;29.60;;;2.40;69.40;;;;;;6157282;23;20009;-77
2024/01/11 04:16:42;;;;;;;38.80;28.67;;;2.40;67.40;;;;;;6183585;23;20333;-77
2024/01/11 04:19:08;;;;;;;38.20;30.17;;;2.50;68.10;;;;;;6182908;23;20429;-78
2024/01/11 04:21:34;;;;;;;39.33;28.83;;;2.50;64.80;;;;;;6182996;23;20001;-77
2024/01/11 04:24:00;;;;;;;34.73;27.90;;;2.40;62.10;;;;;;6183610;23;20025;-78
2024/01/11 04:26:26;;;;;;;38.67;29.23;;;2.40;61.40;;;;;;6157193;23;20009;-77
2024/01/11 04:28:53;;;;;;;38.67;28.57;;;2.40;68.40;;;;;;6157141;23;20060;-77
2024/01/11 04:31:19;;;;;;;40.43;29.07;;;2.40;64.70;;;;;;6183406;23;20437;-77
2024/01/11 04:33:46;;;;;;;34.67;27.17;;;2.40;63.30;;;;;;6156772;23;20031;-77
2024/01/11 04:36:12;;;;;;;37.77;27.63;;;2.40;66.60;;;;;;6158267;23;20005;-77
2024/01/11 04:38:38;;;;;;;38.47;28.90;;;2.40;66.90;;;;;;6184828;23;20043;-77
2024/01/11 04:41:11;;;;;;;35.10;27.50;;;2.40;66.80;;;;;;6158680;23;20033;-77
2024/01/11 04:43:41;;;;;;;32.97;26.97;;;2.40;62.10;;;;;;6185071;23;20001;-77
2024/01/11 04:46:25;;;;;;;35.77;27.63;;;2.40;62.90;;;;;;6184747;23;20000;-77
2024/01/11 04:48:54;;;;;;;36.50;26.77;;;2.30;61.80;;;;;;6184498;23;20075;-77
2024/01/11 04:51:20;;;;;;;35.17;26.87;;;2.30;65.70;;;;;;6183243;23;20012;-77
2024/01/11 04:53:46;;;;;;;35.17;27.20;;;2.30;70.20;;;;;;6158083;23;20009;-77
2024/01/11 04:56:14;;;;;;;33.57;27.00;;;2.20;72.70;;;;;;6158596;23;20386;-77
2024/01/11 04:58:41;;;;;;;34.03;26.73;;;2.20;71.80;;;;;;6157675;23;20008;-77
2024/01/11 05:01:11;;;;;;;32.77;26.67;;;2.20;73.70;;;;;;6184746;23;20013;-77
2024/01/11 05:03:37;;;;;;;33.67;26.43;;;2.20;75.10;;;;;;6157711;23;20087;-77
2024/01/11 05:06:03;;;;;;;33.10;25.70;;;2.20;72.30;;;;;;6184852;23;20001;-77
2024/01/11 05:08:29;;;;;;;32.43;25.57;;;2.20;75.10;;;;;;6157591;23;20009;-77
2024/01/11 05:10:55;;;;;;;32.47;24.83;;;2.20;70.10;;;;;;6157915;23;20036;-77
2024/01/11 05:13:20;;;;;;;35.07;25.73;;;2.20;66.80;;;;;;6184441;23;20012;-77
2024/01/11 05:15:46;;;;;;;31.63;25.13;;;2.20;65.00;;;;;;6184495;23;20027;-77
2024/01/11 05:18:13;;;;;;;30.70;24.87;;;2.20;70.80;;;;;;6184796;23;19997;-77
2024/01/11 05:20:39;;;;;;;32.50;24.93;;;2.20;71.50;;;;;;6184632;23;20488;-77
2024/01/11 05:23:05;;;;;;;30.90;24.30;;;2.10;69.80;;;;;;6157974;23;20088;-77
2024/01/11 05:25:34;;;;;;;30.63;25.10;;;2.20;70.40;;;;;;6183309;23;20044;-77
2024/01/11 05:28:03;;;;;;;32.83;24.50;;;2.20;68.80;;;;;;6184647;23;20035;-77
2024/01/11 05:30:30;;;;;;;29.00;23.43;;;2.20;70.40;;;;;;6157658;23;20332;-77
2024/01/11 05:32:56;;;;;;;29.63;23.20;;;2.20;75.40;;;;;;6184457;23;20005;-77
2024/01/11 05:35:27;;;;;;;26.70;22.53;;;2.20;73.80;;;;;;6158216;23;20076;-77
2024/01/11 05:37:56;;;;;;;28.20;22.48;;;2.20;70.30;;;;;;6184648;23;20001;-77
2024/01/11 05:40:24;;;;;;;28.53;23.73;;;2.20;73.30;;;;;;6158178;23;20032;-77
2024/01/11 05:42:50;;;;;;;30.63;23.40;;;2.20;75.60;;;;;;6184279;23;20437;-77
2024/01/11 05:45:16;;;;;;;26.63;21.07;;;2.20;73.00;;;;;;6184666;23;20335;-77
2024/01/11 05:47:43;;;;;;;27.50;21.43;;;2.20;65.10;;;;;;6157674;23;20375;-77
2024/01/11 05:50:10;;;;;;;30.93;21.97;;;2.20;66.40;;;;;;6183708;23;20001;-77
2024/01/11 05:52:35;;;;;;;33.87;20.97;;;2.30;64.80;;;;;;6158017;23;20048;-77
2024/01/11 05:55:01;;;;;;;27.97;21.10;;;2.30;60.20;;;;;;6184051;23;20005;-77
2024/01/11 05:57:27;;;;;;;26.10;20.23;;;2.30;60.60;;;;;;6184535;23;19989;-77
2024/01/11 05:59:52;;;;;;;24.80;19.63;;;2.30;59.90;;;;;;6183902;23;20016;-77
2024/01/11 06:02:22;;;;;;;25.40;19.73;;;2.30;60.00;;;;;;6157225;23;20100;-77
2024/01/11 06:04:49;;;;;;;28.87;20.63;;;2.20;63.20;;;;;;6184483;23;20005;-77
2024/01/11 06:07:15;;;;;;;23.13;18.93;;;2.20;63.00;;;;;;6158063;23;20000;-77
2024/01/11 06:09:40;;;;;;;24.40;18.23;;;2.20;65.40;;;;;;6183381;23;20005;-77
2024/01/11 06:12:07;;;;;;;21.83;18.57;;;2.20;62.50;;;;;;6157895;23;20044;-77
2024/01/11 06:14:32;;;;;;;23.67;18.43;;;2.30;64.10;;;;;;6184285;23;20001;-77
2024/01/11 06:16:58;;;;;;;24.27;17.63;;;2.20;62.10;;;;;;6157834;23;20009;-77
2024/01/11 06:19:24;;;;;;;24.27;18.97;;;2.30;63.20;;;;;;6183951;23;20001;-77
2024/01/11 06:21:49;;;;;;;21.80;18.00;;;2.30;60.30;;;;;;6157831;23;20001;-76
2024/01/11 06:24:15;;;;;;;24.93;19.90;;;2.30;60.20;;;;;;6157861;23;20616;-77
2024/01/11 06:26:41;;;;;;;22.67;18.63;;;2.30;60.00;;;;;;6184049;23;20005;-77
2024/01/11 06:29:06;;;;;;;24.67;19.43;;;2.30;59.30;;;;;;6184335;23;20001;-77
2024/01/11 06:31:32;;;;;;;25.53;18.63;;;2.30;63.30;;;;;;6157584;23;20553;-77
2024/01/11 06:33:58;;;;;;;20.33;17.77;;;2.30;58.60;;;;;;6184091;23;20092;-77
2024/01/11 06:36:24;;;;;;;25.13;18.43;;;2.30;54.30;;;;;;6183974;23;20079;-77
2024/01/11 06:38:49;;;;;;;23.23;17.00;;;2.30;56.10;;;;;;6157597;23;20410;-77
2024/01/11 06:41:15;;;;;;;27.37;18.27;;;2.30;51.90;;;;;;6184211;23;20071;-77
2024/01/11 06:43:41;;;;;;;25.00;17.60;;;2.40;52.00;;;;;;6184152;23;20373;-77
2024/01/11 06:46:07;;;;;;;23.27;18.43;;;2.30;49.70;;;;;;6157548;23;20326;-77
2024/01/11 06:48:36;;;;;;;25.60;19.00;;;2.20;51.30;;;;;;6157532;23;20094;-77
2024/01/11 06:51:01;;;;;;;25.47;20.77;;;2.00;56.50;;;;;;6184010;23;20005;-77
2024/01/11 06:53:27;;;;;;;24.43;18.50;;;2.00;69.50;;;;;;6157184;23;20337;-77
2024/01/11 06:55:53;;;;;;;23.50;17.80;;;2.00;68.00;;;;;;6157467;23;20008;-77
2024/01/11 06:58:22;;;;;;;21.73;16.97;;;2.00;71.70;;;;;;6183361;23;20079;-77
2024/01/11 07:00:51;;;;;;;23.50;17.53;;;2.10;68.30;;;;;;6183247;23;20064;-77
2024/01/11 07:03:17;;;;;;;19.87;16.77;;;2.10;65.80;;;;;;6183773;23;20005;-77
2024/01/11 07:05:43;;;;;;;22.07;17.20;;;2.10;63.10;;;;;;6183228;23;20005;-77
2024/01/11 07:08:09;;;;;;;21.00;17.70;;;2.00;65.90;;;;;;6183509;23;20096;-77
2024/01/11 07:10:35;;;;;;;25.83;17.83;;;2.10;66.90;;;;;;6157251;23;20009;-77
2024/01/11 07:13:00;;;;;;;22.93;18.00;;;2.10;60.90;;;;;;6183816;23;20008;-77
2024/01/11 07:15:26;;;;;;;23.47;17.37;;;2.00;65.30;;;;;;6183766;23;20429;-76
2024/01/11 07:17:53;;;;;;;28.37;17.93;;;2.10;66.80;;;;;;6183798;23;20329;-77
2024/01/11 07:20:18;;;;;;;22.67;16.67;;;2.10;66.90;;;;;;6183632;23;19997;-77
2024/01/11 07:22:44;;;;;;;24.13;16.63;;;2.10;65.90;;;;;;6183538;23;20059;-77
2024/01/11 07:25:10;;;;;;;25.53;17.37;;;2.10;65.50;;;;;;6183739;23;20040;-77
2024/01/11 07:27:36;;;;;;;23.03;17.20;;;2.10;59.60;;;;;;6183792;23;20005;-77
2024/01/11 07:30:03;;;;;;;27.00;19.23;;;2.10;57.20;;;;;;6183514;23;20004;-77
2024/01/11 07:32:28;;;;;;;22.90;18.90;;;2.00;64.60;;;;;;6183449;23;20088;-77
2024/01/11 07:34:54;;;;;;;23.43;18.33;;;2.10;71.50;;;;;;6183613;23;20032;-77
2024/01/11 07:37:20;;;;;;;25.30;18.40;;;2.10;68.50;;;;;;6183821;23;20051;-77
2024/01/11 07:39:45;;;;;;;24.77;19.50;;;2.10;67.20;;;;;;6157311;23;20049;-77
2024/01/11 07:42:11;;;;;;;26.07;18.93;;;2.10;67.40;;;;;;6157441;23;20093;-77
2024/01/11 07:44:37;;;;;;;26.83;19.77;;;2.10;71.50;;;;;;6157225;23;20012;-77
2024/01/11 07:47:03;;;;;;;24.83;19.27;;;2.10;75.20;;;;;;6183551;23;20460;-77
2024/01/11 07:49:28;;;;;;;25.17;19.13;;;2.10;81.80;;;;;;6156819;23;20009;-77
2024/01/11 07:51:54;;;;;;;25.70;19.03;;;2.20;80.70;;;;;;6157357;23;20333;-77
2024/01/11 07:54:20;;;;;;;29.20;21.30;;;2.20;74.90;;;;;;6183534;23;20055;-77
2024/01/11 07:56:45;;;;;;;68.20;25.50;;;2.30;81.20;;;;;;6183650;23;20299;-77
2024/01/11 07:59:14;;;;;;;59.47;24.87;;;2.30;85.50;;;;;;6183458;23;20484;-77
2024/01/11 08:01:40;;;;;;;31.87;23.77;;;2.30;93.50;;;;;;6156885;23;20095;-77
2024/01/11 08:04:06;;;;;;;36.17;22.40;;;2.40;90.40;;;;;;6183491;23;20012;-77
2024/01/11 08:06:32;;;;;;;32.20;22.23;;;2.40;88.70;;;;;;6183424;23;20005;-77
2024/01/11 08:08:57;;;;;;;40.50;26.90;;;2.50;86.30;;;;;;6157040;23;20001;-77
2024/01/11 08:11:23;;;;;;;42.07;29.47;;;2.50;90.10;;;;;;6185501;23;20363;-77
2024/01/11 08:13:49;;;;;;;43.80;28.20;;;2.60;94.00;;;;;;6185347;23;20011;-77
2024/01/11 08:16:19;;;;;;;37.87;27.33;;;2.60;95.30;;;;;;6158768;23;20009;-77
2024/01/11 08:18:45;;;;;;;41.40;27.93;;;2.60;95.20;;;;;;6185180;23;19997;-77
2024/01/11 08:21:11;;;;;;;38.40;26.37;;;2.70;93.30;;;;;;6185454;23;19997;-77
2024/01/11 08:23:44;;;;;;;49.47;31.97;;;2.70;90.60;;;;;;6159206;23;20088;-77
2024/01/11 08:26:14;;;;;;;51.67;35.10;;;2.70;92.30;;;;;;6185159;23;20341;-77
2024/01/11 08:28:40;;;;;;;41.83;31.57;;;2.80;92.60;;;;;;6185284;23;20001;-77
2024/01/11 08:31:06;;;;;;;45.47;33.63;;;2.80;92.40;;;;;;6185107;23;20433;-77
2024/01/11 08:33:32;;;;;;;46.63;34.30;;;2.90;92.30;;;;;;6185316;23;20029;-77
2024/01/11 08:35:57;;;;;;;40.22;30.17;;;2.90;89.50;;;;;;6185360;23;20004;-77
2024/01/11 08:38:24;;;;;;;40.13;27.10;;;2.90;82.40;;;;;;6185234;23;20043;-77
2024/01/11 08:40:50;;;;;;;33.93;25.33;;;3.00;71.40;;;;;;6185281;23;20068;-76
2024/01/11 08:43:15;;;;;;;40.83;23.90;;;3.00;63.20;;;;;;6158835;23;20084;-77
2024/01/11 08:45:43;;;;;;;33.43;23.63;;;3.10;62.80;;;;;;6185060;23;20008;-77
2024/01/11 08:48:09;;;;;;;36.43;24.63;;;3.10;64.80;;;;;;6185108;23;20009;-77
2024/01/11 08:50:35;;;;;;;38.50;27.03;;;3.20;62.30;;;;;;6158691;23;20009;-77
2024/01/11 08:53:01;;;;;;;37.93;29.10;;;3.20;57.00;;;;;;6184833;23;20310;-77
2024/01/11 08:55:26;;;;;;;41.17;30.73;;;3.20;73.00;;;;;;6185042;23;20029;-77
2024/01/11 08:57:52;;;;;;;39.10;30.23;;;3.30;77.30;;;;;;6184995;23;20425;-77
2024/01/11 09:00:18;;;;;;;42.53;32.00;;;3.30;72.60;;;;;;6158063;23;20067;-77
2024/01/11 09:02:45;;;;;;;47.80;32.10;;;3.30;72.80;;;;;;6185011;23;20001;-77
2024/01/11 09:05:11;;;;;;;42.63;31.63;;;3.40;72.90;;;;;;6158556;23;20009;-77
2024/01/11 09:07:37;;;;;;;40.78;31.50;;;3.40;74.70;;;;;;6158593;23;20005;-77
2024/01/11 09:10:03;;;;;;;42.05;30.98;;;3.50;71.40;;;;;;6158607;23;20056;-77
2024/01/11 09:12:29;;;;;;;39.42;30.27;;;3.50;66.20;;;;;;6158247;23;20013;-77
2024/01/11 09:14:54;;;;;;;42.35;30.70;;;3.50;63.60;;;;;;6184702;23;20500;-77
2024/01/11 09:17:21;;;;;;;38.03;29.33;;;3.50;56.90;;;;;;6158535;23;20001;-77
2024/01/11 09:19:47;;;;;;;41.58;30.00;;;3.60;57.80;;;;;;6184724;23;20004;-77
2024/01/11 09:22:12;;;;;;;47.88;32.22;;;3.60;63.30;;;;;;6184961;23;19997;-77
2024/01/11 09:24:38;;;;;;;46.97;33.53;;;3.60;55.80;;;;;;6184794;23;20005;-77
2024/01/11 09:27:04;;;;;;;56.72;41.70;;;3.60;59.70;;;;;;6183018;23;20007;-77
2024/01/11 09:29:30;;;;;;;56.80;41.90;;;3.70;55.00;;;;;;6184541;23;20055;-77
2024/01/11 09:31:55;;;;;;;40.08;30.85;;;3.70;50.50;;;;;;6184657;23;20101;-77
2024/01/11 09:34:21;;;;;;;35.63;27.90;;;3.70;42.60;;;;;;6184709;23;20031;-76
2024/01/11 09:36:47;;;;;;;37.95;29.13;;;3.80;18.20;;;;;;6184943;23;20025;-77
2024/01/11 09:39:13;;;;;;;47.13;36.50;;;3.80;33.80;;;;;;6155579;23;20001;-77
2024/01/11 09:41:45;;;;;;;49.65;37.08;;;3.80;29.60;;;;;;6180745;23;20008;-76
2024/01/11 09:44:12;;;;;;;39.65;31.10;;;3.90;37.20;;;;;;6180901;23;20009;-76
2024/01/11 09:46:37;;;;;;;35.88;27.83;;;3.90;34.70;;;;;;6179787;23;20001;-76
2024/01/11 09:49:04;;;;;;;38.83;28.60;;;4.00;25.80;;;;;;6152903;23;20063;-76
2024/01/11 09:51:30;;;;;;;35.47;26.75;;;4.00;18.00;;;;;;6153491;23;20063;-77
2024/01/11 09:53:57;;;;;;;35.22;26.52;;;4.10;27.00;;;;;;6178796;23;20036;-76
2024/01/11 09:56:23;;;;;;;34.38;27.10;;;4.10;36.50;;;;;;6152767;23;20005;-76
2024/01/11 09:58:50;;;;;;;37.85;29.35;;;4.10;36.90;;;;;;6152872;23;20005;-76
2024/01/11 10:01:16;;;;;;;51.30;35.97;;;4.20;34.30;;;;;;6178319;23;20017;-77
2024/01/11 10:03:43;;;;;;;46.83;32.15;;;4.20;21.80;;;;;;6179408;23;20020;-75
2024/01/11 10:06:10;;;;;;;36.08;28.13;;;4.30;25.60;;;;;;6179157;23;20087;-76
2024/01/11 10:08:36;;;;;;;39.53;27.70;;;4.40;13.80;;;;;;6179196;23;20020;-76
2024/01/11 10:11:03;;;;;;;36.78;27.17;;;4.40;20.90;;;;;;6153636;23;20040;-77
2024/01/11 10:13:29;;;;;;;36.20;28.23;;;4.40;23.80;;;;;;6178912;23;20009;-77
2024/01/11 10:16:13;;;;;;;43.65;31.75;;;4.50;20.50;;;;;;6178917;23;20051;-76
2024/01/11 10:18:39;;;;;;;77.10;55.03;;;4.50;15.70;;;;;;6178664;23;20007;-75
2024/01/11 10:21:05;;;;;;;56.65;39.78;;;4.60;18.90;;;;;;6180422;23;20055;-75
2024/01/11 10:23:34;;;;;;;57.03;42.50;;;4.60;22.00;;;;;;6153447;23;20440;-77
2024/01/11 10:26:00;;;;;;;57.38;33.65;;;4.70;14.70;;;;;;6179935;23;20005;-76
2024/01/11 10:28:26;;;;;;;39.90;28.23;;;4.70;12.10;;;;;;6179648;23;20005;-77
2024/01/11 10:30:53;;;;;;;44.83;28.38;;;4.80;2.00;;;;;;6179086;23;20336;-76
2024/01/11 10:33:22;;;;;;;38.13;27.20;;;4.80;1.00;;;;;;6179159;23;20005;-77
2024/01/11 10:35:51;;;;;;;40.83;27.17;;;4.90;1.00;;;;;;6179553;23;20028;-77
2024/01/11 10:38:17;;;;;;;34.67;25.80;;;4.90;1.00;;;;;;6152401;23;20035;-75
2024/01/11 10:40:44;;;;;;;33.15;25.48;;;4.90;3.00;;;;;;6179719;23;19997;-77
2024/01/11 10:43:11;;;;;;;38.03;26.50;;;5.00;1.00;;;;;;6152786;23;20009;-76
2024/01/11 10:45:41;;;;;;;36.97;25.77;;;5.00;1.00;;;;;;6152465;23;20016;-76
2024/01/11 10:48:14;;;;;;;39.47;26.30;;;5.00;1.00;;;;;;6179238;23;20005;-76
2024/01/11 10:50:44;;;;;;;37.40;26.88;;;5.10;1.00;;;;;;6179735;23;20056;-76
2024/01/11 10:53:45;;;;;;;38.35;26.02;;;5.20;12.10;;;;;;6179426;23;20550;-76
2024/01/11 10:56:12;;;;;;;40.70;28.23;;;5.30;9.10;;;;;;6152516;23;20055;-75
2024/01/11 10:58:41;;;;;;;48.42;28.45;;;5.30;1.00;;;;;;6179703;23;19997;-76
2024/01/11 11:01:08;;;;;;;38.25;26.30;;;5.40;1.00;;;;;;6153470;23;20017;-77
2024/01/11 11:03:35;;;;;;;41.60;26.92;;;5.40;1.00;;;;;;6179497;23;20089;-76
2024/01/11 11:06:02;;;;;;;36.90;25.33;;;5.50;1.00;;;;;;6179688;23;20028;-76
2024/01/11 11:08:28;;;;;;;38.95;26.13;;;5.60;1.00;;;;;;6153674;23;20375;-77
2024/01/11 11:10:59;;;;;;;38.25;26.95;;;5.60;5.80;;;;;;6179510;23;20467;-76
2024/01/11 11:13:26;;;;;;;40.45;28.25;;;5.60;1.00;;;;;;6179153;23;20043;-77
2024/01/11 11:15:53;;;;;;;37.65;27.50;;;5.70;1.00;;;;;;6153639;23;20005;-76
2024/01/11 11:18:20;;;;;;;36.25;26.38;;;5.70;1.00;;;;;;6180706;23;19997;-77
2024/01/11 11:20:46;;;;;;;39.40;27.50;;;5.70;1.00;;;;;;6155720;23;20133;-77
2024/01/11 11:23:17;;;;;;;39.40;26.80;;;5.80;1.00;;;;;;6156078;23;20001;-77
2024/01/11 11:25:44;;;;;;;37.40;26.50;;;5.80;1.00;;;;;;6155074;23;20023;-77
2024/01/11 11:28:14;;;;;;;33.95;25.48;;;5.90;1.00;;;;;;6181546;23;20008;-77
2024/01/11 11:30:44;;;;;;;38.53;25.20;;;6.00;1.00;;;;;;6182235;23;20005;-77
2024/01/11 11:33:17;;;;;;;37.28;24.27;;;6.00;1.00;;;;;;6181752;23;20012;-77
2024/01/11 11:35:43;;;;;;;31.95;24.58;;;6.00;1.00;;;;;;6180577;23;20005;-77
2024/01/11 11:38:20;;;;;;;37.75;24.50;;;6.00;1.00;;;;;;6155009;23;20106;-77
2024/01/11 11:40:48;;;;;;;45.70;25.63;;;6.10;1.00;;;;;;6154301;23;20032;-77
2024/01/11 11:43:16;;;;;;;57.50;27.23;;;6.20;1.00;;;;;;6182117;23;20043;-77
2024/01/11 11:45:42;;;;;;;41.22;26.65;;;6.20;99.90;;;;;;6155898;23;20417;-77
2024/01/11 11:48:31;;;;;;;34.75;24.42;;;6.30;1.00;;;;;;6157051;23;20040;-77
2024/01/11 11:51:06;;;;;;;32.42;24.85;;;6.30;1.00;;;;;;6157403;23;20009;-77
2024/01/11 11:53:33;;;;;;;35.40;25.42;;;6.30;1.00;;;;;;6157017;23;20040;-77
2024/01/11 11:56:03;;;;;;;38.72;25.40;;;6.40;1.00;;;;;;6183837;23;20004;-77
2024/01/11 11:58:34;;;;;;;34.85;25.48;;;6.50;1.00;;;;;;6157350;23;20029;-77
2024/01/11 12:01:00;;;;;;;31.67;24.63;;;6.60;1.00;;;;;;6156687;23;20076;-77
2024/01/11 12:03:30;;;;;;;38.85;23.27;;;6.60;99.90;;;;;;6182770;23;20337;-77
2024/01/11 12:05:56;;;;;;;29.90;23.55;;;6.70;99.90;;;;;;6184155;23;20305;-77
2024/01/11 12:08:22;;;;;;;34.45;21.98;;;6.60;99.90;;;;;;6183447;23;20008;-77
2024/01/11 12:10:48;;;;;;;30.73;22.65;;;6.70;99.90;;;;;;6156634;23;20009;-77
2024/01/11 12:13:14;;;;;;;26.05;20.92;;;6.70;99.90;;;;;;6183856;23;20037;-77
2024/01/11 12:15:41;;;;;;;30.80;22.73;;;6.70;99.90;;;;;;6183008;23;20088;-77
2024/01/11 12:18:07;;;;;;;30.27;21.98;;;6.70;99.90;;;;;;6183456;23;20005;-77
2024/01/11 12:20:33;;;;;;;29.45;22.38;;;6.80;99.90;;;;;;6182493;23;20414;-77
2024/01/11 12:22:59;;;;;;;28.27;22.10;;;6.80;99.90;;;;;;6180868;23;20013;-78
2024/01/11 12:25:26;;;;;;;29.50;21.90;;;6.90;99.90;;;;;;6181744;23;20064;-80
2024/01/11 12:27:52;;;;;;;27.13;21.48;;;6.90;99.90;;;;;;6179584;23;20017;-80
2024/01/11 12:30:18;;;;;;;30.50;21.50;;;6.90;99.90;;;;;;6177308;23;20310;-80
2024/01/11 12:32:44;;;;;;;27.70;19.83;;;7.00;99.90;;;;;;6179111;23;20001;-81
2024/01/11 12:35:10;;;;;;;24.90;19.67;;;7.00;99.90;;;;;;6179877;23;20005;-80